createdAt,value
2018-08-18T00:01:52.405Z,20.44
2018-08-18T00:04:29.737Z,20.31
2018-08-18T00:07:03.540Z,20.37
2018-08-18T00:09:36.738Z,20.25
2018-08-18T00:12:14.940Z,20.31
2018-08-18T00:14:48.033Z,20.25
2018-08-18T00:17:21.163Z,20.25
2018-08-18T00:19:54.627Z,20.31
2018-08-18T00:22:28.608Z,20.25
2018-08-18T00:25:01.712Z,20.31
2018-08-18T00:27:34.973Z,20.25
2018-08-18T00:30:14.553Z,20.25
2018-08-18T00:32:47.675Z,20.25
2018-08-18T00:35:21.079Z,20.31
2018-08-18T00:37:54.092Z,20.25
2018-08-18T00:40:27.235Z,20.12
2018-08-18T00:43:00.464Z,20.19
2018-08-18T00:45:33.689Z,20.19
2018-08-18T00:48:07.042Z,20.06
2018-08-18T00:50:41.761Z,19.94
2018-08-18T00:53:14.836Z,20.00
2018-08-18T00:55:54.915Z,20.12
2018-08-18T00:58:30.520Z,20.19
2018-08-18T01:01:04.518Z,20.37
2018-08-18T01:03:43.326Z,20.19
2018-08-18T01:06:17.010Z,20.19
2018-08-18T01:08:52.031Z,20.12
2018-08-18T01:11:25.398Z,20.25
2018-08-18T01:14:07.327Z,20.25
2018-08-18T01:16:46.129Z,20.00
2018-08-18T01:19:20.533Z,20.31
2018-08-18T01:21:57.605Z,20.19
2018-08-18T01:24:30.760Z,20.12
2018-08-18T01:27:04.110Z,19.94
2018-08-18T01:29:37.237Z,19.94
2018-08-18T01:32:10.430Z,19.94
2018-08-18T01:34:43.609Z,19.94
2018-08-18T01:37:19.720Z,19.94
2018-08-18T01:39:54.235Z,20.06
2018-08-18T01:42:27.685Z,20.19
2018-08-18T01:45:00.893Z,20.31
2018-08-18T01:47:34.038Z,20.25
2018-08-18T01:50:12.722Z,19.94
2018-08-18T01:52:45.758Z,20.06
2018-08-18T01:55:18.786Z,19.94
2018-08-18T01:57:51.924Z,20.31
2018-08-18T02:00:26.320Z,19.87
2018-08-18T02:02:59.438Z,19.75
2018-08-18T02:05:32.549Z,19.75
2018-08-18T02:08:05.563Z,20.06
2018-08-18T02:10:38.729Z,20.19
2018-08-18T02:13:11.971Z,19.94
2018-08-18T02:15:45.032Z,20.12
2018-08-18T02:18:18.211Z,19.87
2018-08-18T02:20:51.287Z,20.06
2018-08-18T02:23:24.431Z,20.12
2018-08-18T02:25:57.427Z,19.87
2018-08-18T02:28:30.611Z,20.12
2018-08-18T02:31:03.637Z,20.25
2018-08-18T02:33:36.720Z,19.75
2018-08-18T02:36:09.750Z,20.06
2018-08-18T02:38:49.372Z,19.81
2018-08-18T02:41:23.566Z,19.56
2018-08-18T02:43:57.360Z,19.37
2018-08-18T02:46:31.960Z,19.25
2018-08-18T02:49:05.550Z,19.37
2018-08-18T02:51:38.794Z,19.37
2018-08-18T02:54:11.774Z,19.25
2018-08-18T02:56:44.820Z,19.12
2018-08-18T02:59:17.842Z,19.37
2018-08-18T03:01:51.025Z,19.62
2018-08-18T03:04:24.565Z,19.44
2018-08-18T03:06:57.531Z,19.25
2018-08-18T03:09:30.479Z,19.12
2018-08-18T03:12:03.466Z,19.19
2018-08-18T03:14:38.316Z,19.31
2018-08-18T03:17:12.503Z,19.06
2018-08-18T03:19:45.748Z,19.31
2018-08-18T03:22:19.290Z,19.19
2018-08-18T03:24:52.257Z,19.19
2018-08-18T03:27:25.487Z,19.31
2018-08-18T03:29:58.642Z,19.19
2018-08-18T03:32:31.760Z,19.12
2018-08-18T03:35:04.790Z,19.12
2018-08-18T03:37:37.957Z,19.44
2018-08-18T03:40:11.040Z,19.50
2018-08-18T03:42:44.380Z,19.37
2018-08-18T03:45:17.596Z,19.44
2018-08-18T03:47:51.694Z,19.37
2018-08-18T03:50:39.890Z,19.44
2018-08-18T03:53:15.516Z,19.44
2018-08-18T03:55:48.611Z,19.56
2018-08-18T03:58:21.776Z,19.19
2018-08-18T04:00:54.927Z,19.44
2018-08-18T04:03:28.080Z,19.12
2018-08-18T04:06:01.102Z,19.44
2018-08-18T04:08:34.165Z,19.44
2018-08-18T04:11:07.237Z,19.56
2018-08-18T04:13:40.337Z,19.50
2018-08-18T04:16:13.521Z,19.31
2018-08-18T04:18:46.898Z,19.25
2018-08-18T04:21:19.914Z,19.12
2018-08-18T04:23:52.903Z,18.94
2018-08-18T04:26:26.140Z,18.81
2018-08-18T04:28:59.398Z,18.69
2018-08-18T04:31:33.602Z,18.50
2018-08-18T04:34:07.432Z,18.62
2018-08-18T04:36:40.713Z,18.75
2018-08-18T04:39:13.980Z,18.75
2018-08-18T04:41:47.042Z,18.56
2018-08-18T04:44:20.137Z,18.50
2018-08-18T04:46:53.148Z,18.31
2018-08-18T04:49:26.219Z,18.31
2018-08-18T04:51:59.263Z,18.25
2018-08-18T04:54:32.366Z,18.37
2018-08-18T04:57:05.684Z,18.37
2018-08-18T04:59:38.804Z,18.37
2018-08-18T05:02:12.005Z,18.25
2018-08-18T05:04:45.015Z,18.25
2018-08-18T05:07:18.136Z,18.31
2018-08-18T05:09:51.322Z,18.25
2018-08-18T05:12:24.465Z,18.37
2018-08-18T05:14:57.558Z,18.37
2018-08-18T05:17:30.470Z,18.25
2018-08-18T05:20:13.816Z,18.44
2018-08-18T05:22:46.969Z,18.56
2018-08-18T05:25:26.402Z,18.44
2018-08-18T05:28:00.311Z,18.56
2018-08-18T05:30:33.292Z,18.44
2018-08-18T05:33:06.601Z,18.62
2018-08-18T05:35:39.637Z,18.75
2018-08-18T05:38:12.843Z,18.81
2018-08-18T05:40:45.955Z,18.62
2018-08-18T05:43:19.083Z,18.81
2018-08-18T05:45:52.382Z,18.81
2018-08-18T05:48:25.455Z,18.81
2018-08-18T05:50:58.688Z,18.75
2018-08-18T05:53:33.850Z,18.81
2018-08-18T05:56:07.135Z,18.87
2018-08-18T05:58:51.726Z,18.81
2018-08-18T06:01:27.312Z,18.87
2018-08-18T06:04:05.825Z,18.87
2018-08-18T06:06:39.255Z,19.12
2018-08-18T06:09:13.595Z,19.00
2018-08-18T06:11:46.892Z,19.06
2018-08-18T06:14:19.969Z,19.00
2018-08-18T06:16:53.124Z,19.25
2018-08-18T06:19:26.194Z,19.25
2018-08-18T06:21:59.339Z,19.12
2018-08-18T06:24:32.495Z,19.25
2018-08-18T06:27:05.484Z,19.37
2018-08-18T06:29:38.604Z,19.56
2018-08-18T06:32:11.867Z,19.56
2018-08-18T06:34:45.255Z,19.37
2018-08-18T06:37:18.267Z,19.56
2018-08-18T06:39:56.061Z,19.56
2018-08-18T06:42:34.903Z,19.69
2018-08-18T06:45:09.585Z,19.87
2018-08-18T06:47:43.211Z,19.94
2018-08-18T06:50:17.249Z,20.00
2018-08-18T06:52:50.347Z,20.19
2018-08-18T06:55:23.471Z,20.19
2018-08-18T06:57:56.678Z,20.12
2018-08-18T07:00:29.749Z,20.31
2018-08-18T07:03:07.934Z,20.12
2018-08-18T07:05:41.592Z,20.44
2018-08-18T07:08:14.638Z,20.44
2018-08-18T07:10:47.826Z,20.37
2018-08-18T07:13:20.999Z,20.50
2018-08-18T07:15:54.024Z,20.75
2018-08-18T07:18:27.358Z,20.81
2018-08-18T07:21:00.357Z,20.88
2018-08-18T07:28:33.027Z,21.44
2018-08-18T07:31:06.195Z,21.62
2018-08-18T07:33:39.231Z,21.81
2018-08-18T07:36:12.543Z,21.94
2018-08-18T07:38:45.635Z,21.94
2018-08-18T07:41:19.088Z,22.00
2018-08-18T07:43:52.354Z,21.81
2018-08-18T07:46:25.620Z,21.87
2018-08-18T07:48:58.796Z,21.50
2018-08-18T07:51:32.042Z,21.44
2018-08-18T07:54:05.278Z,21.44
2018-08-18T07:56:38.384Z,21.62
2018-08-18T07:59:14.202Z,21.75
2018-08-18T08:01:47.312Z,21.87
2018-08-18T08:04:20.760Z,21.62
2018-08-18T08:06:53.933Z,21.75
2018-08-18T08:09:27.378Z,21.81
2018-08-18T08:12:00.567Z,22.00
2018-08-18T08:14:33.940Z,21.69
2018-08-18T08:17:07.871Z,22.06
2018-08-18T08:19:41.169Z,22.13
2018-08-18T08:22:14.431Z,22.19
2018-08-18T08:24:47.785Z,22.31
2018-08-18T08:27:20.837Z,22.44
2018-08-18T08:29:54.027Z,22.75
2018-08-18T08:32:27.095Z,22.69
2018-08-18T08:35:02.047Z,22.62
2018-08-18T08:37:35.305Z,22.87
2018-08-18T08:40:10.937Z,22.75
2018-08-18T08:42:44.290Z,22.56
2018-08-18T08:45:18.594Z,22.37
2018-08-18T08:47:57.484Z,22.81
2018-08-18T08:50:30.825Z,22.75
2018-08-18T08:53:03.868Z,22.75
2018-08-18T08:55:37.049Z,22.81
2018-08-18T08:58:10.292Z,22.62
2018-08-18T09:00:43.508Z,22.81
2018-08-18T09:03:16.787Z,22.69
2018-08-18T09:05:50.032Z,22.69
2018-08-18T09:08:23.338Z,22.81
2018-08-18T09:10:56.550Z,22.75
2018-08-18T09:13:29.869Z,22.75
2018-08-18T09:16:03.059Z,22.87
2018-08-18T09:18:36.340Z,23.06
2018-08-18T09:21:09.419Z,23.12
2018-08-18T09:23:42.677Z,23.19
2018-08-18T09:26:15.966Z,23.38
2018-08-18T09:28:49.270Z,23.19
2018-08-18T09:31:22.352Z,23.12
2018-08-18T09:33:55.593Z,23.31
2018-08-18T09:36:28.875Z,23.31
2018-08-18T09:39:02.068Z,22.81
2018-08-18T09:41:35.980Z,23.19
2018-08-18T09:44:10.586Z,22.87
2018-08-18T09:46:44.612Z,23.25
2018-08-18T09:49:17.917Z,23.19
2018-08-18T09:51:51.334Z,23.25
2018-08-18T09:54:24.707Z,23.38
2018-08-18T09:56:58.437Z,23.44
2018-08-18T09:59:31.597Z,23.62
2018-08-18T10:02:05.297Z,23.19
2018-08-18T10:04:38.627Z,23.69
2018-08-18T10:07:12.089Z,23.69
2018-08-18T10:09:45.555Z,23.87
2018-08-18T10:12:18.767Z,23.94
2018-08-18T10:14:52.186Z,24.06
2018-08-18T10:17:25.940Z,24.00
2018-08-18T10:20:04.201Z,24.00
2018-08-18T10:22:38.560Z,23.87
2018-08-18T10:25:11.735Z,23.75
2018-08-18T10:27:45.669Z,23.87
2018-08-18T10:30:19.852Z,23.87
2018-08-18T10:32:53.822Z,23.75
2018-08-18T10:35:30.913Z,24.00
2018-08-18T10:38:05.330Z,24.00
2018-08-18T10:40:38.442Z,24.12
2018-08-18T10:43:11.684Z,23.87
2018-08-18T10:50:57.427Z,24.63
2018-08-18T10:53:30.810Z,24.75
2018-08-18T10:56:04.042Z,24.31
2018-08-18T10:58:48.897Z,24.31
2018-08-18T11:01:22.192Z,24.12
2018-08-18T11:03:55.411Z,24.12
2018-08-18T11:06:34.087Z,24.12
2018-08-18T11:09:07.325Z,23.94
2018-08-18T11:11:40.743Z,24.12
2018-08-18T11:14:14.145Z,23.81
2018-08-18T11:16:47.480Z,24.25
2018-08-18T11:19:20.879Z,24.37
2018-08-18T11:22:05.751Z,24.56
2018-08-18T11:24:38.965Z,24.63
2018-08-18T11:27:12.354Z,24.63
2018-08-18T11:32:30.557Z,24.50
2018-08-18T11:35:06.879Z,24.44
2018-08-18T11:37:52.824Z,24.63
2018-08-18T11:40:26.736Z,24.69
2018-08-18T11:43:03.251Z,24.50
2018-08-18T11:45:37.544Z,24.69
2018-08-18T11:48:14.923Z,24.63
2018-08-18T11:50:49.107Z,24.75
2018-08-18T11:53:22.445Z,24.69
2018-08-18T11:55:55.701Z,24.81
2018-08-18T11:58:30.972Z,24.69
2018-08-18T12:01:04.378Z,24.63
2018-08-18T12:03:37.617Z,24.25
2018-08-18T12:06:11.305Z,24.37
2018-08-18T12:08:47.066Z,24.50
2018-08-18T12:11:21.304Z,24.75
2018-08-18T12:13:54.555Z,24.87
2018-08-18T12:16:27.869Z,24.87
2018-08-18T12:19:01.087Z,24.81
2018-08-18T12:21:39.024Z,24.81
2018-08-18T12:24:14.063Z,24.81
2018-08-18T12:26:58.810Z,24.94
2018-08-18T12:29:32.030Z,25.06
2018-08-18T12:32:09.702Z,25.00
2018-08-18T12:34:43.290Z,24.94
2018-08-18T12:37:16.445Z,24.87
2018-08-18T12:39:49.466Z,24.94
2018-08-18T12:42:26.280Z,25.25
2018-08-18T12:44:59.549Z,25.19
2018-08-18T12:47:32.929Z,25.06
2018-08-18T12:50:06.383Z,25.12
2018-08-18T12:52:46.721Z,25.31
2018-08-18T12:55:20.193Z,25.56
2018-08-18T12:57:53.425Z,25.56
2018-08-18T13:00:26.977Z,25.56
2018-08-18T13:03:00.340Z,25.31
2018-08-18T13:05:33.625Z,25.44
2018-08-18T13:08:06.839Z,25.37
2018-08-18T13:10:40.011Z,25.25
2018-08-18T13:13:14.512Z,25.37
2018-08-18T13:15:49.433Z,25.44
2018-08-18T13:18:22.982Z,25.44
2018-08-18T13:20:56.347Z,25.25
2018-08-18T13:23:29.556Z,25.12
2018-08-18T13:26:02.872Z,25.25
2018-08-18T13:28:36.220Z,24.94
2018-08-18T13:31:09.438Z,25.06
2018-08-18T13:33:43.678Z,25.00
2018-08-18T13:36:17.704Z,25.06
2018-08-18T13:38:50.999Z,25.25
2018-08-18T13:41:24.354Z,25.00
2018-08-18T13:43:57.533Z,25.00
2018-08-18T13:46:48.632Z,25.06
2018-08-18T13:49:24.285Z,25.25
2018-08-18T13:51:58.139Z,25.00
2018-08-18T13:54:32.538Z,25.25
2018-08-18T13:57:05.790Z,25.31
2018-08-18T13:59:39.862Z,25.25
2018-08-18T14:02:13.132Z,25.37
2018-08-18T14:04:46.458Z,25.31
2018-08-18T14:07:19.773Z,25.44
2018-08-18T14:09:57.284Z,25.69
2018-08-18T14:12:30.499Z,25.62
2018-08-18T14:15:03.818Z,25.50
2018-08-18T14:17:37.015Z,25.56
2018-08-18T14:20:10.137Z,25.44
2018-08-18T14:22:43.325Z,25.31
2018-08-18T14:25:16.415Z,25.25
2018-08-18T14:27:54.697Z,25.25
2018-08-18T14:30:28.411Z,25.19
2018-08-18T14:33:02.079Z,25.25
2018-08-18T14:35:35.191Z,25.25
2018-08-18T14:38:08.637Z,25.50
2018-08-18T14:40:42.206Z,25.37
2018-08-18T14:43:17.221Z,25.44
2018-08-18T14:45:50.727Z,25.75
2018-08-18T14:48:24.070Z,25.69
2018-08-18T14:50:57.371Z,25.94
2018-08-18T14:53:30.638Z,25.88
2018-08-18T14:56:05.373Z,25.69
2018-08-18T14:58:44.913Z,25.69
2018-08-18T15:01:18.092Z,25.50
2018-08-18T15:03:54.138Z,25.50
2018-08-18T15:06:27.610Z,25.56
2018-08-18T15:09:00.765Z,25.69
2018-08-18T15:11:33.908Z,25.69
2018-08-18T15:14:09.559Z,25.75
2018-08-18T15:16:43.390Z,25.62
2018-08-18T15:19:16.604Z,25.50
2018-08-18T15:21:50.245Z,25.50
2018-08-18T15:24:24.289Z,25.69
2018-08-18T15:26:57.622Z,25.62
2018-08-18T15:29:30.921Z,25.75
2018-08-18T15:32:04.059Z,25.69
2018-08-18T15:34:37.361Z,25.56
2018-08-18T15:37:11.645Z,25.62
2018-08-18T15:39:44.865Z,25.69
2018-08-18T15:42:18.126Z,25.62
2018-08-18T15:44:59.449Z,25.44
2018-08-18T15:47:32.576Z,25.50
2018-08-18T15:50:05.985Z,25.50
2018-08-18T15:52:39.427Z,25.37
2018-08-18T15:55:14.724Z,25.31
2018-08-18T15:57:47.818Z,25.69
2018-08-18T16:00:35.048Z,25.69
2018-08-18T16:03:08.346Z,25.75
2018-08-18T16:05:41.539Z,25.75
2018-08-18T16:08:15.871Z,25.69
2018-08-18T16:10:49.088Z,25.62
2018-08-18T16:13:22.262Z,25.62
2018-08-18T16:15:55.757Z,25.56
2018-08-18T16:18:29.112Z,25.37
2018-08-18T16:21:11.141Z,25.50
2018-08-18T16:23:46.704Z,25.50
2018-08-18T16:26:19.775Z,25.31
2018-08-18T16:31:31.202Z,25.31
2018-08-18T16:34:06.584Z,25.44
2018-08-18T16:36:45.656Z,25.44
2018-08-18T16:39:18.965Z,25.25
2018-08-18T16:41:52.162Z,25.19
2018-08-18T16:44:26.085Z,25.37
2018-08-18T16:47:02.188Z,25.19
2018-08-18T16:49:36.243Z,25.12
2018-08-18T16:52:09.415Z,25.06
2018-08-18T16:54:42.660Z,25.12
2018-08-18T16:57:16.768Z,25.06
2018-08-18T16:59:55.501Z,25.00
2018-08-18T17:02:35.494Z,24.94
2018-08-18T17:05:08.877Z,24.94
2018-08-18T17:07:42.719Z,24.94
2018-08-18T17:10:15.917Z,24.94
2018-08-18T17:12:51.235Z,24.94
2018-08-18T17:15:24.358Z,24.87
2018-08-18T17:17:57.641Z,24.75
2018-08-18T17:20:31.537Z,24.75
2018-08-18T17:23:05.000Z,24.69
2018-08-18T17:25:43.359Z,24.69
2018-08-18T17:28:16.633Z,24.69
2018-08-18T17:30:54.041Z,24.63
2018-08-18T17:33:27.703Z,24.56
2018-08-18T17:36:01.046Z,24.56
2018-08-18T17:38:34.961Z,24.37
2018-08-18T17:41:08.191Z,24.44
2018-08-18T17:43:41.411Z,24.56
2018-08-18T17:46:14.723Z,24.56
2018-08-18T17:48:55.119Z,24.50
2018-08-18T17:51:28.469Z,24.44
2018-08-18T17:54:03.048Z,24.44
2018-08-18T17:56:36.278Z,24.44
2018-08-18T17:59:09.814Z,24.31
2018-08-18T18:01:55.528Z,24.37
2018-08-18T18:04:29.773Z,24.31
2018-08-18T18:07:03.174Z,24.44
2018-08-18T18:09:36.327Z,24.37
2018-08-18T18:12:28.206Z,24.31
2018-08-18T18:15:04.292Z,24.12
2018-08-18T18:17:37.547Z,24.00
2018-08-18T18:20:10.714Z,23.94
2018-08-18T18:22:48.381Z,23.94
2018-08-18T18:25:21.516Z,23.94
2018-08-18T18:27:54.697Z,23.87
2018-08-18T18:30:28.555Z,23.87
2018-08-18T18:33:01.749Z,23.87
2018-08-18T18:35:34.953Z,23.81
2018-08-18T18:38:08.093Z,23.81
2018-08-18T18:40:43.987Z,23.81
2018-08-18T18:43:17.231Z,23.69
2018-08-18T18:45:51.740Z,23.56
2018-08-18T18:48:24.838Z,23.56
2018-08-18T18:50:58.015Z,23.62
2018-08-18T18:53:42.512Z,23.38
2018-08-18T18:56:15.854Z,23.44
2018-08-18T18:58:49.072Z,23.38
2018-08-18T19:01:22.204Z,23.25
2018-08-18T19:03:55.539Z,23.38
2018-08-18T19:06:28.868Z,23.38
2018-08-18T19:09:02.377Z,23.25
2018-08-18T19:11:35.713Z,23.19
2018-08-18T19:14:09.065Z,23.06
2018-08-18T19:16:42.281Z,22.94
2018-08-18T19:19:15.592Z,23.06
2018-08-18T19:21:48.902Z,22.69
2018-08-18T19:24:23.828Z,23.00
2018-08-18T19:26:59.639Z,22.62
2018-08-18T19:29:32.720Z,22.62
2018-08-18T19:32:06.673Z,22.75
2018-08-18T19:34:39.880Z,22.56
2018-08-18T19:37:13.010Z,22.56
2018-08-18T19:39:46.298Z,22.56
2018-08-18T19:42:19.606Z,22.56
2018-08-18T19:44:52.854Z,22.44
2018-08-18T19:47:30.741Z,22.44
2018-08-18T19:50:05.152Z,22.37
2018-08-18T19:52:38.298Z,22.31
2018-08-18T19:55:12.229Z,22.31
2018-08-18T19:57:45.484Z,22.37
2018-08-18T20:00:20.209Z,22.19
2018-08-18T20:02:59.209Z,22.25
2018-08-18T20:05:32.581Z,22.06
2018-08-18T20:08:06.462Z,22.00
2018-08-18T20:10:45.659Z,21.87
2018-08-18T20:13:19.610Z,22.06
2018-08-18T20:15:54.372Z,21.81
2018-08-18T20:18:27.613Z,21.87
2018-08-18T20:21:00.951Z,21.87
2018-08-18T20:23:34.192Z,21.81
2018-08-18T20:26:07.353Z,21.81
2018-08-18T20:28:40.591Z,21.69
2018-08-18T20:31:13.845Z,21.81
2018-08-18T20:33:47.890Z,21.62
2018-08-18T20:36:22.488Z,21.62
2018-08-18T20:38:55.808Z,21.62
2018-08-18T20:41:29.173Z,21.62
2018-08-18T20:44:02.477Z,21.62
2018-08-18T20:46:35.720Z,21.56
2018-08-18T20:49:09.219Z,21.75
2018-08-18T20:51:42.489Z,21.56
2018-08-18T20:54:16.416Z,21.44
2018-08-18T20:56:49.561Z,21.44
2018-08-18T20:59:22.750Z,21.56
2018-08-18T21:01:56.065Z,21.50
2018-08-18T21:04:29.341Z,21.37
2018-08-18T21:07:02.680Z,21.44
2018-08-18T21:09:35.815Z,21.50
2018-08-18T21:12:09.032Z,21.31
2018-08-18T21:14:42.360Z,21.31
2018-08-18T21:17:15.893Z,21.44
2018-08-18T21:19:50.232Z,21.37
2018-08-18T21:22:27.792Z,21.44
2018-08-18T21:25:01.061Z,21.31
2018-08-18T21:27:34.260Z,21.37
2018-08-18T21:30:13.474Z,21.44
2018-08-18T21:32:46.666Z,21.25
2018-08-18T21:35:20.078Z,21.25
2018-08-18T21:37:53.474Z,21.31
2018-08-18T21:40:27.930Z,21.12
2018-08-18T21:43:01.363Z,21.12
2018-08-18T21:45:40.484Z,21.19
2018-08-18T21:48:13.823Z,21.12
2018-08-18T21:50:47.467Z,21.12
2018-08-18T21:53:20.642Z,21.00
2018-08-18T21:55:54.063Z,21.19
2018-08-18T21:58:27.231Z,21.12
2018-08-18T22:01:06.269Z,21.06
2018-08-18T22:03:39.654Z,21.06
2018-08-18T22:06:13.048Z,21.00
2018-08-18T22:08:46.252Z,20.94
2018-08-18T22:11:19.878Z,21.12
2018-08-18T22:13:53.999Z,20.88
2018-08-18T22:16:27.153Z,20.94
2018-08-18T22:19:02.899Z,20.94
2018-08-18T22:21:36.819Z,20.88
2018-08-18T22:24:09.987Z,20.88
2018-08-18T22:26:43.161Z,20.81
2018-08-18T22:29:16.436Z,20.81
2018-08-18T22:31:49.772Z,20.81
2018-08-18T22:34:23.027Z,20.69
2018-08-18T22:37:03.387Z,20.81
2018-08-18T22:39:36.840Z,20.81
2018-08-18T22:42:10.475Z,20.69
2018-08-18T22:44:43.731Z,20.81
2018-08-18T22:47:17.069Z,20.75
2018-08-18T22:49:51.056Z,20.81
2018-08-18T22:52:24.260Z,20.81
2018-08-18T22:54:57.614Z,20.62
2018-08-18T22:57:30.969Z,20.81
2018-08-18T23:00:04.298Z,20.69
2018-08-18T23:02:37.553Z,20.62
2018-08-18T23:05:10.792Z,20.56
2018-08-18T23:07:45.304Z,20.81
2018-08-18T23:10:18.717Z,20.62
2018-08-18T23:12:51.827Z,20.62
2018-08-18T23:15:25.056Z,20.62
2018-08-18T23:17:58.260Z,20.56
2018-08-18T23:20:31.519Z,20.56
2018-08-18T23:23:04.856Z,20.50
2018-08-18T23:25:38.003Z,20.44
2018-08-18T23:28:11.189Z,20.50
2018-08-18T23:30:44.428Z,20.69
2018-08-18T23:33:17.894Z,20.50
2018-08-18T23:35:51.033Z,20.50
2018-08-18T23:38:24.131Z,20.50
2018-08-18T23:41:02.921Z,20.44
2018-08-18T23:43:36.191Z,20.56
2018-08-18T23:46:09.448Z,20.37
2018-08-18T23:48:42.663Z,20.37
2018-08-18T23:51:15.944Z,20.56
2018-08-18T23:53:49.164Z,20.37
2018-08-18T23:56:22.402Z,20.44
2018-08-18T23:58:56.476Z,20.37
